Time;durP1;ratioP1;P1;durP2;ratioP2;P2;SDS_P1;SDS_P2;PMS_P1;PMS_P2;Temp;Humidity;BMP_temperature;BMP_pressure;BME280_temperature;BME280_humidity;BME280_pressure;Samples;Min_cycle;Max_cycle;Signal;HPM_P1;HPM_P2
2022/03/10 00:00:35;;;;;;;17.65;6.13;;;;;;;;;;1651893;29;21779;-56
2022/03/10 00:01:28;;;;;;;17.48;6.30;;;;;;;;;;1648900;29;21656;-56
2022/03/10 00:02:25;;;;;;;25.98;6.07;;;;;;;;;;1646660;29;21649;-55
2022/03/10 00:03:25;;;;;;;10.52;5.43;;;;;;;;;;1656586;29;21608;-56
2022/03/10 00:04:17;;;;;;;9.02;5.35;;;;;;;;;;1650216;29;21562;-56
2022/03/10 00:05:12;;;;;;;22.15;5.40;;;;;;;;;;1650053;29;22041;-56
2022/03/10 00:06:09;;;;;;;17.40;5.05;;;;;;;;;;1643852;29;21695;-57
2022/03/10 00:07:09;;;;;;;15.27;5.25;;;;;;;;;;1640725;29;21524;-56
2022/03/10 00:08:00;;;;;;;20.13;5.68;;;;;;;;;;1653966;29;21561;-57
2022/03/10 00:08:57;;;;;;;11.23;5.75;;;;;;;;;;1650202;29;21544;-56
2022/03/10 00:09:49;;;;;;;9.45;5.40;;;;;;;;;;1648497;29;21597;-56
2022/03/10 00:10:51;;;;;;;13.48;5.95;;;;;;;;;;1648328;29;21684;-57
2022/03/10 00:11:56;;;;;;;14.93;5.63;;;;;;;;;;1649234;29;21721;-60
2022/03/10 00:13:16;;;;;;;11.38;5.22;;;;;;;;;;1639882;30;21530;-60
2022/03/10 00:14:10;;;;;;;9.52;5.07;;;;;;;;;;1646373;29;21579;-61
2022/03/10 00:15:39;;;;;;;18.08;5.85;;;;;;;;;;1649380;29;21507;-60
2022/03/10 00:16:46;;;;;;;17.00;5.32;;;;;;;;;;1639499;29;21555;-61
2022/03/10 00:18:30;;;;;;;19.05;5.97;;;;;;;;;;1636891;29;21504;-59
2022/03/10 00:19:36;;;;;;;16.65;5.30;;;;;;;;;;1647952;29;21984;-61
2022/03/10 00:20:41;;;;;;;10.23;5.65;;;;;;;;;;1645782;29;21504;-59
2022/03/10 00:21:32;;;;;;;13.13;4.80;;;;;;;;;;1645720;29;21525;-57
2022/03/10 00:22:59;;;;;;;15.73;5.30;;;;;;;;;;1637781;30;21523;-57
2022/03/10 00:23:54;;;;;;;9.77;4.93;;;;;;;;;;1643278;29;21611;-56
2022/03/10 00:24:52;;;;;;;12.68;5.03;;;;;;;;;;1639768;30;21693;-58
2022/03/10 00:25:48;;;;;;;7.47;4.75;;;;;;;;;;1650856;29;21621;-57
2022/03/10 00:26:47;;;;;;;8.77;4.88;;;;;;;;;;1656916;29;21652;-56
2022/03/10 00:27:39;;;;;;;11.98;4.47;;;;;;;;;;1645721;29;21658;-57
2022/03/10 00:28:34;;;;;;;11.15;4.88;;;;;;;;;;1645184;29;21520;-60
2022/03/10 00:29:25;;;;;;;9.82;4.70;;;;;;;;;;1642183;29;21570;-57
2022/03/10 00:30:22;;;;;;;13.10;5.18;;;;;;;;;;1645614;29;21549;-57
2022/03/10 00:31:15;;;;;;;5.55;4.22;;;;;;;;;;1648307;29;21917;-57
2022/03/10 00:32:09;;;;;;;8.68;4.80;;;;;;;;;;1645860;29;21485;-56
2022/03/10 00:33:00;;;;;;;16.80;5.28;;;;;;;;;;1648121;29;22062;-56
2022/03/10 00:33:58;;;;;;;6.18;3.63;;;;;;;;;;1653699;29;21547;-56
2022/03/10 00:35:25;;;;;;;8.50;4.30;;;;;;;;;;1637959;30;21597;-56
2022/03/10 00:36:34;;;;;;;5.93;5.15;;;;;;;;;;1637514;29;21962;-56
2022/03/10 00:37:36;;;;;;;10.07;4.35;;;;;;;;;;1638646;29;21885;-56
2022/03/10 00:38:30;;;;;;;19.75;4.30;;;;;;;;;;1637080;29;21554;-57
2022/03/10 00:39:36;;;;;;;29.95;4.88;;;;;;;;;;1649612;29;21823;-57
2022/03/10 00:40:31;;;;;;;23.25;4.68;;;;;;;;;;1651310;29;21581;-56
2022/03/10 00:41:26;;;;;;;13.68;4.60;;;;;;;;;;1648897;29;22000;-56
2022/03/10 00:42:28;;;;;;;21.05;4.22;;;;;;;;;;1649047;29;21549;-56
2022/03/10 00:43:19;;;;;;;9.82;4.82;;;;;;;;;;1657582;29;21851;-56
2022/03/10 00:44:16;;;;;;;23.60;4.63;;;;;;;;;;1652538;29;21589;-56
2022/03/10 00:45:16;;;;;;;15.30;4.10;;;;;;;;;;1645102;29;21503;-56
2022/03/10 00:46:09;;;;;;;8.43;4.25;;;;;;;;;;1638838;29;21559;-56
2022/03/10 00:47:09;;;;;;;18.58;4.40;;;;;;;;;;1642542;29;22092;-56
2022/03/10 00:48:09;;;;;;;12.85;4.30;;;;;;;;;;1648499;29;21541;-56
2022/03/10 00:49:02;;;;;;;10.30;3.60;;;;;;;;;;1645033;29;21608;-59
2022/03/10 00:49:56;;;;;;;6.40;4.20;;;;;;;;;;1644569;29;22057;-57
2022/03/10 00:50:47;;;;;;;8.45;3.90;;;;;;;;;;1649967;29;21540;-56
2022/03/10 00:51:40;;;;;;;14.93;4.28;;;;;;;;;;1649271;29;21533;-56
2022/03/10 00:52:39;;;;;;;9.90;4.18;;;;;;;;;;1639406;30;21622;-55
2022/03/10 00:53:38;;;;;;;10.18;4.38;;;;;;;;;;1643951;29;21564;-55
2022/03/10 00:54:44;;;;;;;6.07;4.18;;;;;;;;;;1642982;29;21601;-56
2022/03/10 00:55:40;;;;;;;10.75;4.13;;;;;;;;;;1646222;29;21526;-56
2022/03/10 00:56:36;;;;;;;8.23;4.75;;;;;;;;;;1657626;29;21638;-56
2022/03/10 00:57:33;;;;;;;;;;;;;;;;;;1652030;29;21572;-56
2022/03/10 00:58:25;;;;;;;7.95;4.28;;;;;;;;;;1650650;29;21375;-57
2022/03/10 00:59:20;;;;;;;5.13;3.80;;;;;;;;;;1654988;29;21513;-57
2022/03/10 01:00:15;;;;;;;7.07;4.30;;;;;;;;;;1655887;29;21515;-57
2022/03/10 01:01:17;;;;;;;11.65;4.18;;;;;;;;;;1648564;29;21572;-57
2022/03/10 01:02:13;;;;;;;6.65;3.65;;;;;;;;;;1648921;29;22147;-57
2022/03/10 01:03:08;;;;;;;9.27;4.20;;;;;;;;;;1639290;29;21552;-57
2022/03/10 01:03:59;;;;;;;14.70;4.57;;;;;;;;;;1640177;29;21563;-57
2022/03/10 01:04:59;;;;;;;10.85;3.92;;;;;;;;;;1647869;29;21552;-57
2022/03/10 01:05:57;;;;;;;11.50;3.90;;;;;;;;;;1644245;29;21495;-56
2022/03/10 01:07:04;;;;;;;10.70;3.95;;;;;;;;;;1651321;29;21505;-57
2022/03/10 01:08:02;;;;;;;9.70;3.55;;;;;;;;;;1651242;29;22086;-57
2022/03/10 01:08:58;;;;;;;4.10;3.70;;;;;;;;;;1648277;29;22128;-60
2022/03/10 01:10:03;;;;;;;5.55;3.65;;;;;;;;;;1643770;29;21720;-60
2022/03/10 01:11:00;;;;;;;5.80;4.22;;;;;;;;;;1638370;29;21727;-56
2022/03/10 01:11:51;;;;;;;11.25;3.50;;;;;;;;;;1650394;29;21626;-56
2022/03/10 01:12:52;;;;;;;6.30;3.70;;;;;;;;;;1650925;29;21664;-56
2022/03/10 01:13:46;;;;;;;4.35;3.35;;;;;;;;;;1656469;29;21583;-55
2022/03/10 01:14:42;;;;;;;12.75;4.05;;;;;;;;;;1657210;29;22063;-60
2022/03/10 01:15:37;;;;;;;18.70;4.60;;;;;;;;;;1646411;29;22021;-60
2022/03/10 01:16:31;;;;;;;13.55;4.30;;;;;;;;;;1647500;29;21848;-60
2022/03/10 01:17:23;;;;;;;7.82;3.70;;;;;;;;;;1639263;30;21671;-59
2022/03/10 01:18:16;;;;;;;12.95;3.90;;;;;;;;;;1643652;29;21621;-57
2022/03/10 01:19:16;;;;;;;8.77;4.28;;;;;;;;;;1637189;30;21655;-57
2022/03/10 01:20:10;;;;;;;10.15;4.32;;;;;;;;;;1638192;30;21563;-56
2022/03/10 01:21:02;;;;;;;7.07;4.18;;;;;;;;;;1647192;29;21637;-56
2022/03/10 01:21:58;;;;;;;3.90;3.33;;;;;;;;;;1649287;29;21614;-56
2022/03/10 01:22:55;;;;;;;18.48;4.70;;;;;;;;;;1645302;29;21597;-55
2022/03/10 01:23:50;;;;;;;11.00;3.72;;;;;;;;;;1643483;29;21624;-56
2022/03/10 01:25:03;;;;;;;14.35;4.13;;;;;;;;;;1647937;29;21586;-56
2022/03/10 01:26:00;;;;;;;7.15;4.00;;;;;;;;;;1657703;29;22009;-56
2022/03/10 01:26:51;;;;;;;10.05;3.45;;;;;;;;;;1651073;29;21557;-56
2022/03/10 01:27:44;;;;;;;6.97;3.72;;;;;;;;;;1649871;29;21517;-55
2022/03/10 01:28:36;;;;;;;14.45;3.60;;;;;;;;;;1643157;29;21593;-59
2022/03/10 01:29:32;;;;;;;6.97;3.95;;;;;;;;;;1643716;29;22128;-59
2022/03/10 01:30:27;;;;;;;8.40;3.60;;;;;;;;;;1648305;29;21653;-56
2022/03/10 01:31:19;;;;;;;10.82;4.10;;;;;;;;;;1644203;29;21888;-61
2022/03/10 01:32:14;;;;;;;5.95;3.67;;;;;;;;;;1640896;29;21515;-56
2022/03/10 01:33:08;;;;;;;8.43;3.70;;;;;;;;;;1646146;29;21884;-56
2022/03/10 01:34:09;;;;;;;4.43;4.03;;;;;;;;;;1650135;29;21567;-56
2022/03/10 01:35:02;;;;;;;8.15;3.90;;;;;;;;;;1641980;29;21647;-57
2022/03/10 01:36:06;;;;;;;12.80;4.30;;;;;;;;;;1644280;29;21762;-57
2022/03/10 01:36:57;;;;;;;6.47;3.58;;;;;;;;;;1650133;29;21577;-55
2022/03/10 01:37:54;;;;;;;10.65;3.65;;;;;;;;;;1644591;29;21535;-56
2022/03/10 01:38:45;;;;;;;5.85;4.20;;;;;;;;;;1636745;29;21665;-56
2022/03/10 01:39:45;;;;;;;10.57;3.80;;;;;;;;;;1642087;29;21511;-57
2022/03/10 01:40:36;;;;;;;9.38;3.75;;;;;;;;;;1642947;29;21544;-57
2022/03/10 01:41:35;;;;;;;4.55;3.30;;;;;;;;;;1642524;29;21638;-61
2022/03/10 01:42:30;;;;;;;7.72;4.00;;;;;;;;;;1648269;29;21542;-60
2022/03/10 01:43:23;;;;;;;7.40;3.92;;;;;;;;;;1656705;29;21567;-60
2022/03/10 01:44:21;;;;;;;8.40;3.60;;;;;;;;;;1657618;29;21612;-60
2022/03/10 01:45:18;;;;;;;8.57;3.83;;;;;;;;;;1650847;29;21678;-57
2022/03/10 01:46:09;;;;;;;4.32;3.55;;;;;;;;;;1650863;29;21554;-57
2022/03/10 01:47:10;;;;;;;9.98;3.45;;;;;;;;;;1647999;29;21655;-57
2022/03/10 01:48:01;;;;;;;6.32;3.90;;;;;;;;;;1644931;29;21642;-55
2022/03/10 01:49:00;;;;;;;7.18;3.95;;;;;;;;;;1646592;29;21685;-56
2022/03/10 01:49:51;;;;;;;5.70;3.40;;;;;;;;;;1650100;29;21609;-56
2022/03/10 01:50:48;;;;;;;9.05;3.88;;;;;;;;;;1648022;29;22232;-60
2022/03/10 01:51:40;;;;;;;11.73;3.40;;;;;;;;;;1650472;29;22134;-61
2022/03/10 01:52:37;;;;;;;13.65;4.18;;;;;;;;;;1654480;29;21853;-56
2022/03/10 01:53:29;;;;;;;5.57;3.08;;;;;;;;;;1650586;29;22073;-56
2022/03/10 01:54:23;;;;;;;9.00;4.18;;;;;;;;;;1655445;29;21670;-56
2022/03/10 01:55:16;;;;;;;7.93;3.80;;;;;;;;;;1657980;29;21684;-56
2022/03/10 01:56:08;;;;;;;5.80;3.45;;;;;;;;;;1650949;29;21702;-57
2022/03/10 01:57:01;;;;;;;5.55;4.18;;;;;;;;;;1651388;29;21512;-56
2022/03/10 01:57:55;;;;;;;4.22;3.83;;;;;;;;;;1647526;29;21537;-60
2022/03/10 01:58:47;;;;;;;16.90;4.65;;;;;;;;;;1645185;29;21646;-56
2022/03/10 01:59:59;;;;;;;5.80;3.90;;;;;;;;;;1646457;29;21598;-59
2022/03/10 02:00:57;;;;;;;11.23;3.30;;;;;;;;;;1644458;29;21598;-56
2022/03/10 02:01:49;;;;;;;9.57;3.75;;;;;;;;;;1644526;29;22100;-56
2022/03/10 02:02:48;;;;;;;10.10;4.03;;;;;;;;;;1643895;29;22179;-56
2022/03/10 02:03:55;;;;;;;6.53;4.13;;;;;;;;;;1656470;29;21560;-56
2022/03/10 02:04:48;;;;;;;7.40;4.47;;;;;;;;;;1663357;29;22109;-56
2022/03/10 02:05:43;;;;;;;4.78;4.35;;;;;;;;;;1651100;29;21692;-55
2022/03/10 02:06:37;;;;;;;12.60;3.80;;;;;;;;;;1647565;29;21530;-57
2022/03/10 02:10:39;;;;;;;12.05;4.50;;;;;;;;;;1657659;29;21588;-56
2022/03/10 02:11:37;;;;;;;15.43;4.30;;;;;;;;;;1656382;29;21632;-59
2022/03/10 02:12:43;;;;;;;14.82;4.07;;;;;;;;;;1652393;29;21600;-61
2022/03/10 02:13:57;;;;;;;36.58;4.82;;;;;;;;;;1643949;29;21534;-60
2022/03/10 02:17:59;;;;;;;22.95;4.20;;;;;;;;;;1650824;29;21598;-60
2022/03/10 02:19:05;;;;;;;19.50;4.55;;;;;;;;;;1640310;30;22066;-60
2022/03/10 02:19:59;;;;;;;15.85;3.95;;;;;;;;;;1643211;29;21515;-59
2022/03/10 02:21:00;;;;;;;25.65;4.80;;;;;;;;;;1651823;29;22106;-61
2022/03/10 02:21:57;;;;;;;28.08;4.95;;;;;;;;;;1651648;29;21499;-61
2022/03/10 02:22:52;;;;;;;30.40;5.55;;;;;;;;;;1658080;29;21517;-60
2022/03/10 02:23:44;;;;;;;23.63;4.88;;;;;;;;;;1657504;29;21510;-60
2022/03/10 02:24:50;;;;;;;17.25;4.80;;;;;;;;;;1649830;29;21622;-60
2022/03/10 02:26:01;;;;;;;28.63;4.78;;;;;;;;;;1647766;29;21626;-60
2022/03/10 02:27:40;;;;;;;14.45;4.63;;;;;;;;;;1650941;29;22099;-61
2022/03/10 02:29:03;;;;;;;17.77;4.38;;;;;;;;;;1650384;29;21581;-60
2022/03/10 02:30:58;;;;;;;13.95;4.40;;;;;;;;;;1653466;29;21597;-57
2022/03/10 02:31:56;;;;;;;10.68;3.80;;;;;;;;;;1619895;30;21599;-56
2022/03/10 02:32:51;;;;;;;17.52;4.03;;;;;;;;;;1627256;30;21611;-56
2022/03/10 02:33:48;;;;;;;17.75;5.22;;;;;;;;;;1626979;30;21714;-56
2022/03/10 02:34:49;;;;;;;16.50;4.38;;;;;;;;;;1626795;30;22144;-56
2022/03/10 02:35:49;;;;;;;24.05;4.90;;;;;;;;;;1627203;30;21598;-60
2022/03/10 02:36:42;;;;;;;25.10;4.97;;;;;;;;;;1623730;30;22177;-59
2022/03/10 02:37:44;;;;;;;19.40;4.97;;;;;;;;;;1622410;30;21639;-61
2022/03/10 02:38:50;;;;;;;27.17;4.78;;;;;;;;;;1621006;30;21688;-59
2022/03/10 02:39:45;;;;;;;18.75;4.30;;;;;;;;;;1633647;30;21885;-59
2022/03/10 02:40:37;;;;;;;19.15;4.80;;;;;;;;;;1621797;30;21847;-61
2022/03/10 02:41:29;;;;;;;32.00;4.65;;;;;;;;;;1617096;30;21574;-61
2022/03/10 02:42:30;;;;;;;19.67;4.75;;;;;;;;;;1617359;30;21513;-59
2022/03/10 02:43:28;;;;;;;20.98;5.55;;;;;;;;;;1609429;30;21555;-60
2022/03/10 02:44:24;;;;;;;9.93;4.25;;;;;;;;;;1619235;30;21706;-60
2022/03/10 02:45:15;;;;;;;16.25;4.00;;;;;;;;;;1617207;30;21716;-57
2022/03/10 02:46:14;;;;;;;10.80;5.43;;;;;;;;;;1630391;30;21494;-56
2022/03/10 02:47:07;;;;;;;;;;;;;;;;;;1622330;30;21650;-57
2022/03/10 02:48:03;;;;;;;7.03;4.72;;;;;;;;;;1627601;30;22014;-57
2022/03/10 02:49:00;;;;;;;11.73;4.43;;;;;;;;;;1626162;30;21522;-57
2022/03/10 02:49:52;;;;;;;13.23;4.47;;;;;;;;;;1617156;30;21666;-57
2022/03/10 02:50:45;;;;;;;9.40;4.78;;;;;;;;;;1619861;30;21543;-57
2022/03/10 02:51:38;;;;;;;10.60;4.78;;;;;;;;;;1619131;30;21664;-60
2022/03/10 02:52:53;;;;;;;10.20;4.32;;;;;;;;;;1618020;30;21754;-61
2022/03/10 02:54:10;;;;;;;20.75;4.50;;;;;;;;;;1617020;30;21547;-60
2022/03/10 02:55:14;;;;;;;11.60;4.72;;;;;;;;;;1621122;30;21690;-60
2022/03/10 02:56:29;;;;;;;15.98;5.20;;;;;;;;;;1627606;30;21659;-60
2022/03/10 02:58:00;;;;;;;13.57;4.32;;;;;;;;;;1630714;30;21597;-60
2022/03/10 02:59:31;;;;;;;20.77;4.22;;;;;;;;;;1632590;30;21556;-57
2022/03/10 03:03:48;;;;;;;25.75;4.35;;;;;;;;;;1641360;29;21501;-59
2022/03/10 03:04:39;;;;;;;17.08;4.63;;;;;;;;;;1633919;30;21555;-56
2022/03/10 03:05:32;;;;;;;13.23;4.35;;;;;;;;;;1639429;30;21510;-60
2022/03/10 03:06:59;;;;;;;21.88;4.43;;;;;;;;;;1639374;29;21670;-62
2022/03/10 03:08:19;;;;;;;9.30;4.78;;;;;;;;;;1632066;30;21631;-61
2022/03/10 03:10:02;;;;;;;10.07;4.40;;;;;;;;;;1633551;30;22140;-60
2022/03/10 03:10:57;;;;;;;7.10;4.43;;;;;;;;;;1629176;30;21556;-55
2022/03/10 03:11:50;;;;;;;16.80;4.53;;;;;;;;;;1632951;30;21694;-58
2022/03/10 03:12:48;;;;;;;14.68;4.53;;;;;;;;;;1631429;30;21957;-60
2022/03/10 03:13:41;;;;;;;8.43;4.10;;;;;;;;;;1627312;30;21694;-60
2022/03/10 03:14:33;;;;;;;15.95;4.35;;;;;;;;;;1626479;30;22177;-57
2022/03/10 03:15:26;;;;;;;16.88;4.88;;;;;;;;;;1615549;30;21619;-61
2022/03/10 03:16:17;;;;;;;15.25;4.13;;;;;;;;;;1623666;30;21634;-57
2022/03/10 03:18:59;;;;;;;12.35;4.35;;;;;;;;;;1627590;30;22124;-60
2022/03/10 03:20:23;;;;;;;13.02;3.65;;;;;;;;;;1628454;30;21538;-62
2022/03/10 03:21:15;;;;;;;14.07;4.10;;;;;;;;;;1625960;30;21591;-57
2022/03/10 03:22:08;;;;;;;13.23;4.68;;;;;;;;;;1625134;30;21991;-57
2022/03/10 03:23:00;;;;;;;15.77;4.93;;;;;;;;;;1634835;30;21512;-57
2022/03/10 03:24:20;;;;;;;22.67;4.60;;;;;;;;;;1633637;30;21700;-56
2022/03/10 03:25:43;;;;;;;6.30;4.10;;;;;;;;;;1631693;30;21749;-56
2022/03/10 03:26:44;;;;;;;8.57;3.47;;;;;;;;;;1627767;30;21527;-60
2022/03/10 03:27:54;;;;;;;9.25;4.03;;;;;;;;;;1623900;30;21527;-61
2022/03/10 03:28:56;;;;;;;15.95;4.22;;;;;;;;;;1633761;30;21782;-60
2022/03/10 03:30:02;;;;;;;10.25;3.85;;;;;;;;;;1636354;29;21634;-60
2022/03/10 03:31:05;;;;;;;;;;;;;;;;;;1633569;30;21583;-60
2022/03/10 03:32:09;;;;;;;11.25;4.07;;;;;;;;;;1639352;30;22351;-60
2022/03/10 03:33:08;;;;;;;12.52;4.10;;;;;;;;;;1639683;30;21654;-57
2022/03/10 03:34:09;;;;;;;9.63;3.80;;;;;;;;;;1633673;30;21607;-58
2022/03/10 03:35:02;;;;;;;19.10;3.42;;;;;;;;;;1639071;29;21490;-59
2022/03/10 03:36:03;;;;;;;14.20;4.22;;;;;;;;;;1638739;30;21491;-60
2022/03/10 03:36:59;;;;;;;24.50;4.68;;;;;;;;;;1627754;30;21567;-60
2022/03/10 03:37:54;;;;;;;12.90;3.90;;;;;;;;;;1627314;30;21527;-57
2022/03/10 03:38:50;;;;;;;26.17;4.47;;;;;;;;;;1638632;29;21582;-56
2022/03/10 03:39:43;;;;;;;15.88;4.00;;;;;;;;;;1645332;29;21561;-57
2022/03/10 03:40:34;;;;;;;22.88;3.92;;;;;;;;;;1639742;30;22134;-55
2022/03/10 03:41:31;;;;;;;5.40;4.18;;;;;;;;;;1627497;30;21604;-56
2022/03/10 03:42:25;;;;;;;5.63;3.80;;;;;;;;;;1625391;30;21597;-60
2022/03/10 03:43:18;;;;;;;8.95;4.15;;;;;;;;;;1628024;30;21526;-61
2022/03/10 03:44:15;;;;;;;15.90;4.07;;;;;;;;;;1638023;29;21986;-55
2022/03/10 03:45:23;;;;;;;22.33;3.55;;;;;;;;;;1632195;30;21585;-56
2022/03/10 03:46:27;;;;;;;11.27;4.30;;;;;;;;;;1634618;30;21583;-60
2022/03/10 03:47:28;;;;;;;8.15;4.20;;;;;;;;;;1637033;30;21669;-57
2022/03/10 03:48:30;;;;;;;14.70;5.20;;;;;;;;;;1625229;30;21565;-56
2022/03/10 03:49:31;;;;;;;9.85;4.00;;;;;;;;;;1627858;30;21552;-59
2022/03/10 03:50:35;;;;;;;27.10;4.53;;;;;;;;;;1639400;30;21745;-56
2022/03/10 03:51:27;;;;;;;28.52;4.35;;;;;;;;;;1633527;30;21577;-59
2022/03/10 03:52:40;;;;;;;12.75;4.07;;;;;;;;;;1631816;30;21629;-60
2022/03/10 03:53:44;;;;;;;11.65;3.83;;;;;;;;;;1643694;29;21536;-60
2022/03/10 03:54:48;;;;;;;15.02;4.45;;;;;;;;;;1637306;30;21641;-60
2022/03/10 03:55:40;;;;;;;12.25;4.82;;;;;;;;;;1633713;30;21619;-60
2022/03/10 03:56:39;;;;;;;20.70;4.90;;;;;;;;;;1644475;29;21527;-57
2022/03/10 03:57:34;;;;;;;13.10;4.30;;;;;;;;;;1639597;30;21592;-57
2022/03/10 03:58:28;;;;;;;20.73;4.50;;;;;;;;;;1627464;30;21646;-57
2022/03/10 03:59:20;;;;;;;15.15;4.10;;;;;;;;;;1625928;30;21582;-60
2022/03/10 04:00:22;;;;;;;29.88;5.03;;;;;;;;;;1628506;30;21668;-57
2022/03/10 04:01:14;;;;;;;23.63;5.63;;;;;;;;;;1632444;30;21512;-56
2022/03/10 04:02:10;;;;;;;15.32;4.65;;;;;;;;;;1628304;30;22561;-54
2022/03/10 04:03:16;;;;;;;28.40;5.15;;;;;;;;;;1629324;30;21523;-59
2022/03/10 04:04:09;;;;;;;20.70;5.25;;;;;;;;;;1633528;30;21563;-60
2022/03/10 04:05:06;;;;;;;37.72;5.85;;;;;;;;;;1633058;30;21573;-60
2022/03/10 04:06:02;;;;;;;33.58;6.15;;;;;;;;;;1632221;30;22157;-57
2022/03/10 04:07:12;;;;;;;29.80;5.78;;;;;;;;;;1631937;30;21822;-60
2022/03/10 04:08:42;;;;;;;34.85;6.05;;;;;;;;;;1640057;29;21514;-56
2022/03/10 04:09:39;;;;;;;25.92;6.20;;;;;;;;;;1632040;30;22130;-61
2022/03/10 04:10:32;;;;;;;32.47;6.75;;;;;;;;;;1632621;30;21631;-57
2022/03/10 04:11:24;;;;;;;19.73;6.93;;;;;;;;;;1636672;30;21551;-57
2022/03/10 04:12:30;;;;;;;17.83;6.07;;;;;;;;;;1626722;30;22119;-56
2022/03/10 04:13:30;;;;;;;35.00;6.70;;;;;;;;;;1631416;30;21577;-60
2022/03/10 04:14:58;;;;;;;31.77;6.32;;;;;;;;;;1636289;30;21573;-61
2022/03/10 04:15:53;;;;;;;18.42;6.05;;;;;;;;;;1633549;30;21635;-58
2022/03/10 04:17:10;;;;;;;16.80;6.63;;;;;;;;;;1632081;30;21599;-58
2022/03/10 04:18:08;;;;;;;28.85;7.28;;;;;;;;;;1638158;30;21626;-57
2022/03/10 04:19:09;;;;;;;23.48;7.80;;;;;;;;;;1631061;30;21523;-57
2022/03/10 04:20:14;;;;;;;31.02;7.40;;;;;;;;;;1632412;30;21921;-56
2022/03/10 04:21:58;;;;;;;18.92;7.10;;;;;;;;;;1639170;29;21518;-59
2022/03/10 04:24:12;;;;;;;26.13;7.22;;;;;;;;;;1640609;29;21638;-61
2022/03/10 04:25:32;;;;;;;22.52;7.47;;;;;;;;;;1643975;29;22166;-57
2022/03/10 04:26:45;;;;;;;23.15;6.63;;;;;;;;;;1638418;30;21524;-57
2022/03/10 04:28:02;;;;;;;20.02;8.20;;;;;;;;;;1629256;30;21625;-56
2022/03/10 04:29:03;;;;;;;30.98;8.27;;;;;;;;;;1633195;30;21780;-57
2022/03/10 04:30:07;;;;;;;18.00;6.72;;;;;;;;;;1633678;30;21678;-56
2022/03/10 04:30:59;;;;;;;19.42;7.55;;;;;;;;;;1632749;30;21534;-60
2022/03/10 04:32:05;;;;;;;28.85;8.45;;;;;;;;;;1626965;30;21503;-61
2022/03/10 04:33:05;;;;;;;39.30;8.18;;;;;;;;;;1625331;30;21985;-61
2022/03/10 04:34:26;;;;;;;26.65;7.47;;;;;;;;;;1632753;30;21980;-60
2022/03/10 04:35:42;;;;;;;;;;;;;;;;;;1637520;30;21532;-61
2022/03/10 04:36:49;;;;;;;21.80;7.45;;;;;;;;;;1638475;30;21518;-60
2022/03/10 04:38:12;;;;;;;23.05;7.93;;;;;;;;;;1636433;30;21562;-60
2022/03/10 04:39:46;;;;;;;32.00;8.45;;;;;;;;;;1643851;29;21601;-56
2022/03/10 04:40:46;;;;;;;28.83;8.02;;;;;;;;;;1635629;30;21622;-57
2022/03/10 04:42:02;;;;;;;35.00;8.02;;;;;;;;;;1636705;30;21776;-57
2022/03/10 04:42:56;;;;;;;13.32;7.65;;;;;;;;;;1643028;29;21570;-60
2022/03/10 04:44:00;;;;;;;33.08;8.73;;;;;;;;;;1645731;29;21560;-61
2022/03/10 04:44:57;;;;;;;29.25;8.27;;;;;;;;;;1639647;30;21619;-60
2022/03/10 04:46:05;;;;;;;26.88;7.53;;;;;;;;;;1632603;30;21511;-57
2022/03/10 04:47:06;;;;;;;28.33;8.10;;;;;;;;;;1627301;30;21914;-57
2022/03/10 04:48:06;;;;;;;28.08;7.88;;;;;;;;;;1632563;30;21651;-57
2022/03/10 04:49:14;;;;;;;30.02;8.43;;;;;;;;;;1630387;30;21575;-59
2022/03/10 04:50:36;;;;;;;25.20;7.10;;;;;;;;;;1633052;30;21644;-60
2022/03/10 04:52:15;;;;;;;13.93;7.78;;;;;;;;;;1634320;30;22044;-61
2022/03/10 04:53:43;;;;;;;25.98;8.88;;;;;;;;;;1630936;30;21618;-57
2022/03/10 04:54:47;;;;;;;26.65;8.05;;;;;;;;;;1619179;30;21660;-57
2022/03/10 04:55:50;;;;;;;23.58;7.88;;;;;;;;;;1626666;30;21913;-57
2022/03/10 04:56:48;;;;;;;19.52;8.23;;;;;;;;;;1638927;30;21565;-57
2022/03/10 04:57:43;;;;;;;24.80;8.45;;;;;;;;;;1636180;30;21510;-56
2022/03/10 04:58:39;;;;;;;31.92;8.07;;;;;;;;;;1625758;30;21621;-56
2022/03/10 04:59:32;;;;;;;17.13;7.30;;;;;;;;;;1615305;30;21572;-57
2022/03/10 05:00:23;;;;;;;21.85;7.43;;;;;;;;;;1623155;30;21554;-57
2022/03/10 05:01:21;;;;;;;22.92;7.45;;;;;;;;;;1635023;30;22093;-58
2022/03/10 05:02:12;;;;;;;22.98;6.95;;;;;;;;;;1638086;30;21614;-57
2022/03/10 05:03:13;;;;;;;29.98;8.13;;;;;;;;;;1639039;30;22081;-60
2022/03/10 05:04:24;;;;;;;30.70;7.22;;;;;;;;;;1635734;30;22044;-56
2022/03/10 05:05:18;;;;;;;;;;;;;;;;;;1639639;30;21608;-56
2022/03/10 05:06:17;;;;;;;37.55;7.75;;;;;;;;;;1644559;29;21658;-60
2022/03/10 05:07:41;;;;;;;26.50;7.45;;;;;;;;;;1644535;29;21572;-61
2022/03/10 05:08:33;;;;;;;21.92;6.50;;;;;;;;;;1638199;29;21696;-57
2022/03/10 05:09:33;;;;;;;25.20;6.78;;;;;;;;;;1638490;29;21580;-57
2022/03/10 05:10:26;;;;;;;;;;;;;;;;;;1642973;29;21865;-56
2022/03/10 05:11:29;;;;;;;19.25;7.68;;;;;;;;;;1645079;29;21500;-57
2022/03/10 05:12:48;;;;;;;26.60;6.47;;;;;;;;;;1632596;30;21698;-57
2022/03/10 05:13:56;;;;;;;18.52;6.35;;;;;;;;;;1625953;30;21538;-56
2022/03/10 05:14:47;;;;;;;26.48;7.00;;;;;;;;;;1627247;30;21582;-56
2022/03/10 05:15:50;;;;;;;20.58;6.20;;;;;;;;;;1628923;30;21549;-59
2022/03/10 05:16:45;;;;;;;28.02;6.15;;;;;;;;;;1625376;30;22003;-60
2022/03/10 05:17:44;;;;;;;20.58;5.90;;;;;;;;;;1627346;30;21538;-61
2022/03/10 05:18:45;;;;;;;23.25;6.68;;;;;;;;;;1626401;30;21551;-60
2022/03/10 05:19:45;;;;;;;29.13;6.32;;;;;;;;;;1637421;30;21713;-60
2022/03/10 05:23:37;;;;;;;13.07;6.68;;;;;;;;;;1603273;30;21594;-60
2022/03/10 05:24:34;;;;;;;21.80;6.40;;;;;;;;;;1603472;30;21659;-60
2022/03/10 05:25:40;;;;;;;12.63;5.28;;;;;;;;;;1609349;30;21611;-61
2022/03/10 05:26:41;;;;;;;13.90;6.07;;;;;;;;;;1637250;24;21873;-60
2022/03/10 05:28:04;;;;;;;23.35;6.07;;;;;;;;;;1620421;30;21578;-60
2022/03/10 05:29:19;;;;;;;12.85;4.93;;;;;;;;;;1628321;30;22126;-61
2022/03/10 05:30:16;;;;;;;18.20;5.40;;;;;;;;;;1623057;30;22049;-61
2022/03/10 05:31:30;;;;;;;13.90;5.40;;;;;;;;;;1614033;30;21509;-60
2022/03/10 05:33:31;;;;;;;23.75;5.80;;;;;;;;;;1610140;30;21653;-60
2022/03/10 05:34:47;;;;;;;11.15;5.20;;;;;;;;;;1626322;30;21521;-60
2022/03/10 05:35:40;;;;;;;22.33;6.00;;;;;;;;;;1626612;30;21519;-60
2022/03/10 05:36:43;;;;;;;17.23;5.30;;;;;;;;;;1616427;30;22220;-61
2022/03/10 05:37:38;;;;;;;21.63;5.18;;;;;;;;;;1616930;30;21511;-60
2022/03/10 05:38:30;;;;;;;14.30;5.10;;;;;;;;;;1626437;30;21564;-57
2022/03/10 05:39:27;;;;;;;18.67;5.13;;;;;;;;;;1631471;30;21589;-57
2022/03/10 05:40:31;;;;;;;21.17;6.00;;;;;;;;;;1622538;30;21544;-57
2022/03/10 05:41:23;;;;;;;15.30;5.38;;;;;;;;;;1620992;30;21701;-60
2022/03/10 05:42:15;;;;;;;11.60;5.50;;;;;;;;;;1606939;30;21591;-60
2022/03/10 05:43:09;;;;;;;29.70;5.53;;;;;;;;;;1611701;30;21529;-60
2022/03/10 05:44:07;;;;;;;16.63;5.63;;;;;;;;;;1617904;30;21488;-60
2022/03/10 05:45:11;;;;;;;20.75;4.97;;;;;;;;;;1616280;30;21555;-55
2022/03/10 05:46:12;;;;;;;16.85;5.20;;;;;;;;;;1625610;30;21586;-57
2022/03/10 05:47:12;;;;;;;12.35;4.82;;;;;;;;;;1622119;30;21535;-57
2022/03/10 05:48:08;;;;;;;26.45;5.15;;;;;;;;;;1613327;30;21615;-57
2022/03/10 05:49:07;;;;;;;18.33;4.95;;;;;;;;;;1619840;30;21681;-59
2022/03/10 05:50:01;;;;;;;20.13;5.38;;;;;;;;;;1627826;30;21532;-60
2022/03/10 05:51:20;;;;;;;22.30;5.15;;;;;;;;;;1628405;30;21694;-60
2022/03/10 05:52:45;;;;;;;17.40;4.70;;;;;;;;;;1625193;30;21533;-60
2022/03/10 05:53:48;;;;;;;19.23;4.63;;;;;;;;;;1616078;30;21521;-60
2022/03/10 05:54:41;;;;;;;15.00;5.10;;;;;;;;;;1616252;30;21525;-61
2022/03/10 05:55:53;;;;;;;14.57;4.60;;;;;;;;;;1625667;30;22038;-61
2022/03/10 05:56:48;;;;;;;13.95;4.88;;;;;;;;;;1616251;30;21641;-60
2022/03/10 05:57:45;;;;;;;12.38;4.82;;;;;;;;;;1621022;30;21636;-60
2022/03/10 05:58:45;;;;;;;17.42;4.88;;;;;;;;;;1630558;30;21598;-60
2022/03/10 05:59:41;;;;;;;13.43;4.63;;;;;;;;;;1628129;30;21642;-57
2022/03/10 06:00:34;;;;;;;19.00;4.38;;;;;;;;;;1621323;30;21472;-56
2022/03/10 06:01:26;;;;;;;11.45;4.32;;;;;;;;;;1626069;30;21674;-60
2022/03/10 06:02:36;;;;;;;9.65;5.88;;;;;;;;;;1630310;30;21587;-61
2022/03/10 06:03:41;;;;;;;28.52;4.30;;;;;;;;;;1621090;30;21526;-60
2022/03/10 06:04:38;;;;;;;10.90;4.20;;;;;;;;;;1617914;30;22073;-61
2022/03/10 06:05:33;;;;;;;16.25;4.95;;;;;;;;;;1611722;30;21505;-61
2022/03/10 06:06:25;;;;;;;12.27;4.07;;;;;;;;;;1625294;30;21682;-61
2022/03/10 06:07:17;;;;;;;16.75;4.20;;;;;;;;;;1634260;30;21525;-60
2022/03/10 06:08:10;;;;;;;11.85;4.00;;;;;;;;;;1621481;30;21677;-60
2022/03/10 06:09:02;;;;;;;18.63;4.78;;;;;;;;;;1616829;30;21752;-60
2022/03/10 06:09:55;;;;;;;9.30;4.07;;;;;;;;;;1613997;30;21569;-60
2022/03/10 06:10:48;;;;;;;10.15;4.50;;;;;;;;;;1624299;30;21565;-61
2022/03/10 06:11:45;;;;;;;11.90;4.00;;;;;;;;;;1620675;30;21524;-60
2022/03/10 06:12:40;;;;;;;11.85;4.28;;;;;;;;;;1627329;30;21640;-61
2022/03/10 06:13:36;;;;;;;13.57;4.07;;;;;;;;;;1632619;30;21536;-59
2022/03/10 06:14:28;;;;;;;9.25;3.72;;;;;;;;;;1622933;30;21550;-59
2022/03/10 06:15:23;;;;;;;14.52;4.07;;;;;;;;;;1616008;30;22022;-61
2022/03/10 06:16:35;;;;;;;12.23;3.63;;;;;;;;;;1616247;30;21589;-60
2022/03/10 06:17:41;;;;;;;17.63;4.25;;;;;;;;;;1621991;30;21566;-61